Tiempo atmosférico en la estación meteorológica de Fresno de Cantiespino, Segovia (993 m.)



Fecha
DESCASC
Temp. máxima en grados centígrados (hora)
DESCASC
Temp. mínima en grados centígrados (hora)
DESCASC
Temp. media en grados centígrados
DESCASC
Racha de viento máxima en m/sg (hora)
DESCASC
Velocidad máxima media en intervalos de 10 minutos(hora)
DESCASC
Precipitaciones diarias en mm
DESCASC
Precipitaciones de 00:00 a 06:00 en mm
DESCASC
Precipitaciones de 06:00 a 12:00 en mm
DESCASC
Precipitaciones de 12:00 a 18:00 en mm
DESCASC
Precipitaciones de 18:00 a 24:00 en mm
DESCASC

Gráficas

Temp. máximas Temp. mínimas Temp. medias Precipitaciones Rachas de viento máximas Velocidades máximas media en intervalos de 10 minutos

Datos horarios

Fecha y hora oficial Temperatura (ºC) Velocidad del viento (km/h) Dirección del viento Racha (km/h) Dirección de racha Precipitación (mm) Presión (hPa) Tendencia (hPa) Humedad (%)
2019-11-13 23:00:00 8.3 27 Sudoeste 58 Sudoeste 0 -- -- 87
2019-11-13 22:00:00 8.5 28 Sudoeste 44 Sudoeste 0 -- -- 84
2019-11-13 21:00:00 8.6 30 Sudoeste 45 Sudoeste 0 -- -- 84
2019-11-13 20:00:00 7.5 17 Sudoeste 26 Sudoeste 0 -- -- 84
2019-11-13 19:00:00 7.8 14 Sur 22 Sudoeste 0 -- -- 82
2019-11-13 18:00:00 8.7 14 Oeste 21 Sudoeste 0 -- -- 78
2019-11-13 17:00:00 10 15 Sudoeste 34 Oeste 0 -- -- 73
2019-11-13 16:00:00 10.2 16 Oeste 27 Oeste 0 -- -- 74
2019-11-13 15:00:00 9.6 14 Noroeste 25 Noroeste 0 -- -- 75
2019-11-13 14:00:00 9.4 16 Noroeste 30 Noroeste 0 -- -- 77
2019-11-13 13:00:00 9.5 15 Norte 26 Noroeste 0 -- -- 77
2019-11-13 12:00:00 8.3 6 Noroeste 21 Noroeste 0 -- -- 82
2019-11-13 11:00:00 7.4 14 Noroeste 21 Noroeste 0 -- -- 89
2019-11-13 10:00:00 6.2 10 Norte 24 Norte 0 -- -- 92
2019-11-13 09:00:00 6.2 11 Noroeste 30 Norte 0 -- -- 92
2019-11-13 08:00:00 6.9 24 Norte 44 Norte 0 -- -- 94
2019-11-13 07:00:00 9.6 16 Oeste 32 Oeste 0 -- -- 93
2019-11-13 06:00:00 9.4 18 Oeste 33 Oeste 0 -- -- 98
2019-11-13 05:00:00 9 17 Sudoeste 39 Sudoeste 0 -- -- 98
2019-11-13 04:00:00 8.8 21 Sudoeste 38 Sudoeste 0 -- -- 98
2019-11-13 03:00:00 8.5 24 Sudoeste 44 Sudoeste 0 -- -- 97
2019-11-13 02:00:00 8.2 26 Sudoeste 43 Sudoeste 0 -- -- 97
2019-11-13 01:00:00 7.9 26 Sudoeste 44 Sudoeste 0 -- -- 97
2019-11-13 00:00:00 7.5 25 Sudoeste 42 Sudoeste 0 -- -- 97
2019-11-12 23:00:00 6.9 25 Sudoeste 44 Sudoeste 0 -- -- 97
2019-11-12 22:00:00 6.5 26 Sudoeste 42 Sudoeste 0 -- -- 96
2019-11-12 21:00:00 5.4 19 Sudoeste 34 Sur 0 -- -- 96
2019-11-12 20:00:00 5.3 22 Sudoeste 36 Sudoeste 0 -- -- 94
2019-11-12 19:00:00 5.6 15 Sudoeste 28 Sudoeste 0 -- -- 89
2019-11-12 18:00:00 6.3 13 Sudoeste 28 Sudoeste 0 -- -- 83
2019-11-12 17:00:00 7 19 Sudoeste 36 Sudoeste 0 -- -- 74
2019-11-12 16:00:00 7.1 17 Sudoeste 32 Oeste 0 -- -- 75
2019-11-12 15:00:00 7.8 21 Oeste 37 Oeste 0 -- -- 76
2019-11-12 14:00:00 7.2 22 Oeste 33 Oeste 0 -- -- 77
2019-11-12 13:00:00 7 19 Sudoeste 30 Sudoeste 0 -- -- 80
2019-11-12 12:00:00 6.2 18 Sudoeste 28 Sudoeste 0 -- -- 86
2019-11-12 11:00:00 4.5 20 Sudoeste 28 Sudoeste 0 -- -- 94
2019-11-12 10:00:00 2.8 15 Sudoeste 24 Sudoeste 0 -- -- 98
2019-11-12 09:00:00 1.4 14 Sudoeste 22 Sudoeste 0 -- -- 98
2019-11-12 08:00:00 1.2 12 Sudoeste 18 Sudoeste 0 -- -- 97
2019-11-12 07:00:00 1.6 11 Sudoeste 17 Sudoeste 0 -- -- 97
2019-11-12 06:00:00 1.4 9 Sudoeste 13 Sudoeste 0 -- -- 98
2019-11-12 05:00:00 0.6 9 Sudoeste 12 Sudoeste 0 -- -- 98
2019-11-12 04:00:00 0.4 5 Sudoeste 12 Sur 0 -- -- 97
2019-11-12 03:00:00 0.4 8 Sudoeste 12 Sur 0 -- -- 97
2019-11-12 02:00:00 0.1 8 Sudoeste 12 Sudoeste 0 -- -- 97
2019-11-12 01:00:00 -0.2 5 Sudoeste 9 Sur 0 -- -- 97
2019-11-12 00:00:00 -0.4 6 Sur 10 Sur 0 -- -- 96
2019-11-11 23:00:00 1.6 0 Calma 8 Sur 0 -- -- 95
2019-11-11 22:00:00 3 6 Noroeste 17 Norte 0 -- -- 91
2019-11-11 21:00:00 3.5 13 Noroeste 18 Noroeste 0 -- -- 90
2019-11-11 20:00:00 3.8 9 Oeste 11 Noroeste 0 -- -- 91
2019-11-11 19:00:00 4.7 8 Norte 15 Norte 0 -- -- 90
2019-11-11 18:00:00 6.1 4 Norte 17 Norte 0 -- -- 88
2019-11-11 17:00:00 7.1 14 Norte 21 Norte 0 -- -- 90
2019-11-11 16:00:00 7.3 13 Norte 23 Noroeste 0 -- -- 90
2019-11-11 15:00:00 7.1 16 Norte 22 Norte 0 -- -- 97
2019-11-11 14:00:00 6.8 11 Oeste 27 Sudoeste 0 -- -- 97
2019-11-11 13:00:00 6.6 18 Sudoeste 31 Sudoeste 0 -- -- 97
2019-11-11 12:00:00 6 18 Sudoeste 31 Sudoeste 0 -- -- 98
2019-11-11 11:00:00 -- -- -- -- -- -- -- -- --
2019-11-11 10:00:00 -- -- -- -- -- -- -- -- --
2019-11-11 09:00:00 -- -- -- -- -- -- -- -- --
2019-11-11 08:00:00 -- -- -- -- -- -- -- -- --
2019-11-11 07:00:00 -- -- -- -- -- -- -- -- --
2019-11-11 06:00:00 -- -- -- -- -- -- -- -- --
2019-11-11 05:00:00 -- -- -- -- -- -- -- -- --
2019-11-11 04:00:00 -- -- -- -- -- -- -- -- --
2019-11-11 03:00:00 -- -- -- -- -- -- -- -- --
2019-11-11 02:00:00 -- -- -- -- -- -- -- -- --
2019-11-11 01:00:00 -- -- -- -- -- -- -- -- --
2019-11-11 00:00:00 -- -- -- -- -- -- -- -- --
2019-11-10 23:00:00 2.9 6 Sudoeste 14 Oeste 0 -- -- 95
2019-11-10 22:00:00 2.7 8 Sudoeste 14 Sudoeste 0 -- -- 95
2019-11-10 21:00:00 2.7 8 Sudoeste 13 Oeste 0 -- -- 95
2019-11-10 20:00:00 3 6 Noroeste 10 Noroeste 0 -- -- 94
2019-11-10 19:00:00 2.7 4 Sudoeste 9 Noroeste 0 -- -- 94
2019-11-10 18:00:00 2.8 6 Noroeste 17 Noroeste 0 -- -- 95
2019-11-10 17:00:00 2.6 9 Noroeste 17 Noroeste 0 -- -- 96
2019-11-10 16:00:00 1.4 13 Norte 35 Norte 0 -- -- 94
2019-11-10 15:00:00 4.8 20 Oeste 31 Oeste 0 -- -- 89
2019-11-10 14:00:00 4.6 18 Oeste 35 Oeste 0 -- -- 89
2019-11-10 13:00:00 4.8 22 Oeste 33 Oeste 0 -- -- 82
2019-11-10 12:00:00 3.8 21 Oeste 30 Oeste 0 -- -- 86
2019-11-10 11:00:00 3.3 18 Sudoeste 35 Sudoeste 0 -- -- 87
2019-11-10 10:00:00 3.4 21 Sudoeste 38 Sudoeste 0 -- -- 86
2019-11-10 09:00:00 1.9 22 Sudoeste 36 Sudoeste 0 -- -- 87
2019-11-10 08:00:00 0.9 19 Sudoeste 32 Sudoeste 0 -- -- 89
2019-11-10 07:00:00 0.9 13 Sudoeste 19 Sudoeste 0 -- -- 91
2019-11-10 06:00:00 1.5 8 Oeste 19 Noroeste 0 -- -- 89
2019-11-10 05:00:00 2.2 12 Oeste 27 Oeste 0 -- -- 89
2019-11-10 04:00:00 3.1 18 Noroeste 33 Noroeste 0 -- -- 89
2019-11-10 03:00:00 3.9 21 Noroeste 35 Noroeste 0 -- -- 89
2019-11-10 02:00:00 4.4 19 Noroeste 29 Noroeste 0 -- -- 89
2019-11-10 01:00:00 5.2 18 Oeste 34 Oeste 0 -- -- 87
2019-11-10 00:00:00 5.7 23 Oeste 45 Oeste 0 -- -- 87
2019-11-09 23:00:00 5.9 21 Oeste 38 Oeste 0 -- -- 91
2019-11-09 22:00:00 6.7 19 Oeste 35 Oeste 0 -- -- 94
2019-11-09 21:00:00 6.8 18 Sudoeste 33 Oeste 0 -- -- 96
2019-11-09 20:00:00 6.6 18 Sudoeste 31 Sudoeste 0 -- -- 97
2019-11-09 19:00:00 6.5 14 Sudoeste 28 Sudoeste 0 -- -- 97
2019-11-09 18:00:00 6.4 18 Sudoeste 31 Oeste 0 -- -- 97
2019-11-09 17:00:00 6.4 20 Sudoeste 45 Sudoeste 0 -- -- 96
2019-11-09 16:00:00 6.1 23 Sudoeste 39 Sudoeste 0 -- -- 96
2019-11-09 15:00:00 5.6 18 Sudoeste 35 Sudoeste 0 -- -- 96
2019-11-09 14:00:00 5.2 25 Sudoeste 42 Sudoeste 0 -- -- 94
2019-11-09 13:00:00 5.2 29 Sudoeste 42 Sudoeste 0 -- -- 93
2019-11-09 12:00:00 5 24 Sudoeste 37 Sudoeste 0 -- -- 90
2019-11-09 11:00:00 4.4 22 Sudoeste 37 Sudoeste 0 -- -- 88
2019-11-09 10:00:00 3.6 21 Sudoeste 34 Sudoeste 0 -- -- 91
2019-11-09 09:00:00 3.2 22 Sudoeste 34 Sudoeste 0 -- -- 92
2019-11-09 08:00:00 2.9 20 Sudoeste 32 Sudoeste 0 -- -- 93
2019-11-09 07:00:00 2.7 17 Sudoeste 29 Sudoeste 0 -- -- 93
2019-11-09 06:00:00 2.5 19 Sudoeste 29 Sudoeste 0 -- -- 93
2019-11-09 05:00:00 2.3 19 Sudoeste 32 Sudoeste 0 -- -- 93
2019-11-09 04:00:00 2.1 18 Sudoeste 30 Sudoeste 0 -- -- 93
2019-11-09 03:00:00 1.9 17 Sudoeste 32 Sudoeste 0 -- -- 92
2019-11-09 02:00:00 1.7 12 Sudoeste 22 Sudoeste 0 -- -- 92
2019-11-09 01:00:00 1.8 14 Sudoeste 22 Sudoeste 0 -- -- 89
2019-11-09 00:00:00 2.6 16 Sudoeste 23 Sudoeste 0 -- -- 83
2019-11-08 23:00:00 2.8 9 Sudoeste 23 Oeste 0 -- -- 83
2019-11-08 22:00:00 3.9 15 Oeste 30 Oeste 0 -- -- 76
2019-11-08 21:00:00 4.6 19 Oeste 34 Oeste 0 -- -- 76
2019-11-08 20:00:00 5.1 18 Oeste 32 Oeste 0 -- -- 78
2019-11-08 19:00:00 5.8 15 Sudoeste 33 Oeste 0 -- -- 78
2019-11-08 18:00:00 5.9 19 Oeste 39 Oeste 0 -- -- 75
2019-11-08 17:00:00 6.6 21 Oeste 44 Oeste 0 -- -- 72
2019-11-08 16:00:00 6.8 30 Oeste 47 Oeste 0 -- -- 69
2019-11-08 15:00:00 6.1 26 Oeste 50 Oeste 0 -- -- 71
2019-11-08 14:00:00 6.1 28 Oeste 46 Oeste 0 -- -- 74
2019-11-08 13:00:00 5.6 29 Oeste 50 Sudoeste 0 -- -- 79
2019-11-08 12:00:00 4.3 26 Sudoeste 43 Sudoeste 0 -- -- 87
2019-11-08 11:00:00 2.9 24 Sudoeste 39 Sudoeste 0 -- -- 90
2019-11-08 10:00:00 2 23 Sudoeste 44 Sudoeste 0 -- -- 92
2019-11-08 09:00:00 1.7 22 Sudoeste 37 Sudoeste 0 -- -- 91
2019-11-08 08:00:00 1.3 21 Sudoeste 39 Oeste 0 -- -- 92
2019-11-08 07:00:00 1.2 23 Sudoeste 37 Sudoeste 0 -- -- 93
2019-11-08 06:00:00 1.1 18 Sudoeste 38 Sudoeste 0 -- -- 93
2019-11-08 05:00:00 1.5 23 Sudoeste 36 Oeste 0 -- -- 89
2019-11-08 04:00:00 1.9 23 Oeste 40 Sudoeste 0 -- -- 88
2019-11-08 03:00:00 1.7 26 Oeste 43 Oeste 0 -- -- 87
2019-11-08 02:00:00 2.1 21 Sudoeste 44 Oeste 0 -- -- 88
2019-11-08 01:00:00 2.2 23 Oeste 42 Oeste 0 -- -- 87
2019-11-08 00:00:00 2.4 22 Sudoeste 42 Sudoeste 0 -- -- 88
2019-11-07 23:00:00 2.3 21 Sudoeste 36 Sudoeste 0 -- -- 88
2019-11-07 22:00:00 2.6 21 Sudoeste 37 Oeste 0 -- -- 90
2019-11-07 21:00:00 2.8 14 Sudoeste 32 Sudoeste 0 -- -- 91
2019-11-07 20:00:00 2.1 11 Sur 23 Sudoeste 0 -- -- 93
2019-11-07 19:00:00 2 15 Sudoeste 50 Oeste 0.2 -- -- 92
2019-11-07 18:00:00 3.2 20 Oeste 51 Noroeste 0.6 -- -- 86
2019-11-07 17:00:00 6.4 30 Sudoeste 48 Sudoeste 0 -- -- 72
2019-11-07 16:00:00 6.7 27 Sudoeste 52 Sudoeste 0.2 -- -- 72
2019-11-07 15:00:00 7.9 22 Oeste 42 Sudoeste 0 -- -- 77
2019-11-07 14:00:00 7.7 26 Oeste 40 Sudoeste 0 -- -- 78
2019-11-07 13:00:00 7 30 Oeste 45 Oeste 0 -- -- 77
2019-11-07 12:00:00 6.8 28 Oeste 40 Oeste 0 -- -- 87
2019-11-07 11:00:00 6.7 22 Oeste 38 Sudoeste 0.4 -- -- 88
2019-11-07 10:00:00 6.5 26 Oeste 46 Oeste 0 -- -- 82
2019-11-07 09:00:00 6.7 17 Oeste 28 Noroeste 0 -- -- 90
2019-11-07 08:00:00 7.8 15 Oeste 31 Oeste 0 -- -- 93
2019-11-07 07:00:00 8.2 20 Oeste 37 Oeste 0 -- -- 93
2019-11-07 06:00:00 8.7 23 Oeste 42 Oeste 0.4 -- -- 95
2019-11-07 05:00:00 8.8 21 Sudoeste 34 Sudoeste 0.2 -- -- 97
2019-11-07 04:00:00 8.7 19 Sudoeste 35 Sudoeste 0 -- -- 97
2019-11-07 03:00:00 8.3 19 Sudoeste 31 Sudoeste 0 -- -- 97
2019-11-07 02:00:00 8.2 18 Sudoeste 31 Sudoeste 0 -- -- 97
2019-11-07 01:00:00 7.7 17 Sudoeste 33 Sudoeste 0 -- -- 96
2019-11-07 00:00:00 7.3 22 Sudoeste 36 Sudoeste 0 -- -- 94
2019-11-06 23:00:00 7.2 22 Sudoeste 36 Sudoeste 0 -- -- 94
2019-11-06 22:00:00 7.3 23 Sudoeste 37 Sudoeste 0 -- -- 91
2019-11-06 21:00:00 7.4 18 Sudoeste 32 Sudoeste 0 -- -- 87
2019-11-06 20:00:00 7.4 15 Sudoeste 31 Oeste 0 -- -- 85
2019-11-06 19:00:00 8.2 19 Sudoeste 33 Oeste 0 -- -- 79
2019-11-06 18:00:00 8.1 21 Sudoeste 37 Oeste 0 -- -- 80
2019-11-06 17:00:00 8.8 15 Sudoeste 27 Sudoeste 0 -- -- 74
2019-11-06 16:00:00 9.9 21 Sudoeste 33 Sudoeste 0 -- -- 68
2019-11-06 15:00:00 9.8 20 Sudoeste 38 Oeste 0 -- -- 68
2019-11-06 14:00:00 9.1 19 Oeste 34 Oeste 0 -- -- 73
2019-11-06 13:00:00 8.3 22 Oeste 33 Sudoeste 0 -- -- 77
2019-11-06 12:00:00 7.9 19 Sudoeste 35 Sudoeste 0 -- -- 84
2019-11-06 11:00:00 6.9 21 Sudoeste 33 Sudoeste 0 -- -- 84
2019-11-06 10:00:00 5.9 19 Sudoeste 31 Sudoeste 0 -- -- 89
2019-11-06 09:00:00 4.5 15 Sudoeste 27 Sudoeste 0 -- -- 94
2019-11-06 08:00:00 4.2 18 Sudoeste 32 Sudoeste 0 -- -- 95
2019-11-06 07:00:00 4.1 16 Sudoeste 27 Sudoeste 0 -- -- 95
2019-11-06 06:00:00 4.5 15 Sudoeste 32 Sudoeste 0 -- -- 95
2019-11-06 05:00:00 4.6 16 Sudoeste 27 Sudoeste 0 -- -- 94
2019-11-06 04:00:00 4.9 14 Sudoeste 28 Sudoeste 0 -- -- 92
2019-11-06 03:00:00 4.8 16 Sudoeste 27 Sudoeste 0 -- -- 94
2019-11-06 02:00:00 4.7 13 Sudoeste 23 Sudoeste 0 -- -- 94
2019-11-06 01:00:00 4.5 14 Sudoeste 23 Sudoeste 0 -- -- 92
2019-11-06 00:00:00 4.7 12 Sudoeste 19 Oeste 0 -- -- 92
2019-11-05 23:00:00 5.4 12 Sudoeste 27 Oeste 0 -- -- 88
2019-11-05 22:00:00 6.5 15 Oeste 26 Oeste 0 -- -- 86
2019-11-05 21:00:00 6.1 10 Oeste 20 Oeste 0 -- -- 86
2019-11-05 20:00:00 6.9 13 Oeste 29 Oeste 0 -- -- 80
2019-11-05 19:00:00 7.1 15 Sudoeste 27 Oeste 0 -- -- 87
2019-11-05 18:00:00 7.6 17 Oeste 44 Oeste 0 -- -- 84
2019-11-05 17:00:00 8.2 17 Oeste 31 Oeste 0 -- -- 90
2019-11-05 16:00:00 7.6 19 Oeste 53 Noroeste 1.4 -- -- 89
2019-11-05 15:00:00 8.8 32 Oeste 51 Sudoeste 0 -- -- 80
2019-11-05 14:00:00 8.8 29 Oeste 49 Oeste 0.4 -- -- 84
2019-11-05 13:00:00 8.4 28 Oeste 49 Oeste 0 -- -- 80
2019-11-05 12:00:00 7.7 28 Oeste 45 Oeste 0 -- -- 87
2019-11-05 11:00:00 7 25 Sudoeste 40 Sudoeste 0 -- -- 87
2019-11-05 10:00:00 6 26 Sudoeste 48 Sudoeste 0 -- -- 88
2019-11-05 09:00:00 5.6 21 Sudoeste 37 Oeste 0 -- -- 88
2019-11-05 08:00:00 5.5 21 Sudoeste 39 Oeste 0 -- -- 88
2019-11-05 07:00:00 5.3 21 Sudoeste 39 Oeste 0 -- -- 87
2019-11-05 06:00:00 5.4 21 Oeste 42 Sudoeste 0 -- -- 87
2019-11-05 05:00:00 5.3 23 Oeste 43 Oeste 0 -- -- 88
2019-11-05 04:00:00 5.4 24 Sudoeste 49 Sudoeste 0 -- -- 89
2019-11-05 03:00:00 5.8 27 Sudoeste 48 Sudoeste 0 -- -- 88
2019-11-05 02:00:00 6.1 23 Oeste 46 Oeste 0 -- -- 90
2019-11-05 01:00:00 6.4 23 Oeste 45 Oeste 0 -- -- 90
2019-11-05 00:00:00 6.8 22 Sudoeste 40 Oeste 0 -- -- 89
2019-11-04 23:00:00 7.1 19 Sudoeste 39 Oeste 0 -- -- 91
2019-11-04 22:00:00 7.6 17 Sudoeste 40 Oeste 0 -- -- 93
2019-11-04 21:00:00 8.2 22 Oeste 39 Oeste 0 -- -- 91
2019-11-04 20:00:00 9 22 Oeste 46 Sudoeste 0 -- -- 90
2019-11-04 19:00:00 9.3 21 Sudoeste 44 Oeste 0 -- -- 92
2019-11-04 18:00:00 10.4 32 Oeste 55 Oeste 0.6 -- -- 89
2019-11-04 17:00:00 10.9 36 Oeste 55 Oeste 3 -- -- 93
2019-11-04 16:00:00 12.3 18 Sudoeste 45 Oeste 0.4 -- -- 87
2019-11-04 15:00:00 12.7 31 Sudoeste 53 Oeste 0 -- -- 80
2019-11-04 14:00:00 13.1 34 Sudoeste 55 Sudoeste 0 -- -- 81
2019-11-04 13:00:00 13.7 33 Sudoeste 59 Sudoeste 0 -- -- 73
2019-11-04 12:00:00 12.9 32 Sudoeste 58 Sudoeste 0 -- -- 76
2019-11-04 11:00:00 12.2 34 Sudoeste 59 Sudoeste 0 -- -- 77
2019-11-04 10:00:00 10.9 30 Sudoeste 55 Sudoeste 0 -- -- 83
2019-11-04 09:00:00 9.7 27 Sudoeste 55 Sudoeste 0.2 -- -- 94
2019-11-04 08:00:00 10.5 26 Sudoeste 60 Sudoeste 0 -- -- 83
2019-11-04 07:00:00 10.7 30 Sudoeste 57 Sudoeste 0 -- -- 82
2019-11-04 06:00:00 10.4 33 Sudoeste 58 Sudoeste 0 -- -- 86
2019-11-04 05:00:00 10.3 35 Sudoeste 54 Sudoeste 0 -- -- 89
2019-11-04 04:00:00 10.3 30 Sudoeste 61 Sudoeste 0 -- -- 91
2019-11-04 03:00:00 10.6 31 Sudoeste 48 Sudoeste 0.2 -- -- 96
2019-11-04 02:00:00 10.7 28 Sudoeste 53 Sudoeste 0 -- -- 95
2019-11-04 01:00:00 10.4 28 Sudoeste 50 Sudoeste 0 -- -- 97
2019-11-04 00:00:00 9.9 23 Sudoeste 42 Sudoeste 0.2 -- -- 97
2019-11-03 23:00:00 9.4 27 Sudoeste 43 Sudoeste 0 -- -- 96
2019-11-03 22:00:00 9.1 23 Sudoeste 42 Sudoeste 0 -- -- 95
2019-11-03 21:00:00 9.2 26 Sudoeste 47 Sudoeste 0 -- -- 91
2019-11-03 20:00:00 9.8 23 Sudoeste 40 Sudoeste 0 -- -- 79
2019-11-03 19:00:00 9.7 28 Sudoeste 40 Sudoeste 0 -- -- 77
2019-11-03 18:00:00 9.7 23 Sudoeste 47 Sudoeste 0 -- -- 74
2019-11-03 17:00:00 10.6 31 Sudoeste 48 Sudoeste 0 -- -- 71
2019-11-03 16:00:00 11.1 33 Oeste 57 Oeste 0 -- -- 67
2019-11-03 15:00:00 12.1 32 Oeste 53 Oeste 0 -- -- 65
2019-11-03 14:00:00 10.8 28 Oeste 48 Oeste 0 -- -- 70
2019-11-03 13:00:00 10.6 26 Oeste 42 Oeste 0 -- -- 77
2019-11-03 12:00:00 9.5 30 Oeste 51 Oeste 0 -- -- 80
2019-11-03 11:00:00 8.5 26 Oeste 48 Oeste 0 -- -- 82
2019-11-03 10:00:00 8.1 29 Sudoeste 44 Sudoeste 0 -- -- 86
2019-11-03 09:00:00 8.3 23 Oeste 44 Sudoeste 0 -- -- 88
2019-11-03 08:00:00 8.8 32 Oeste 80 Oeste 0 -- -- 86
2019-11-03 07:00:00 10.3 27 Oeste 59 Oeste 0.8 -- -- 96
2019-11-03 06:00:00 9.9 32 Sudoeste 59 Sudoeste 0.6 -- -- 96
2019-11-03 05:00:00 9.6 34 Sudoeste 62 Sudoeste 0 -- -- 95
2019-11-03 04:00:00 9.3 35 Sudoeste 62 Sudoeste 0 -- -- 95
2019-11-03 03:00:00 9.2 37 Sudoeste 62 Oeste 0 -- -- 92
2019-11-03 02:00:00 9.5 32 Sudoeste 62 Sudoeste 0 -- -- 92
2019-11-03 01:00:00 10.4 32 Sudoeste 57 Sudoeste 0 -- -- 83
2019-11-03 00:00:00 10.4 33 Sudoeste 61 Sudoeste 0 -- -- 82
2019-11-02 23:00:00 10.7 31 Sudoeste 55 Sudoeste 0 -- -- 83
2019-11-02 22:00:00 11 26 Sudoeste 48 Sudoeste 0 -- -- 87
2019-11-02 21:00:00 11.5 24 Sudoeste 44 Sudoeste 0 -- -- 87
2019-11-02 20:00:00 11.3 20 Sudoeste 50 Oeste 0 -- -- 87
2019-11-02 19:00:00 12.7 26 Oeste 40 Sudoeste 0 -- -- 82
2019-11-02 18:00:00 13.4 24 Sudoeste 43 Sudoeste 0 -- -- 80
2019-11-02 17:00:00 14.2 19 Oeste 46 Sudoeste 0 -- -- 80
2019-11-02 16:00:00 14.7 26 Sudoeste 52 Sudoeste 0 -- -- 78
2019-11-02 15:00:00 15.9 29 Sudoeste 47 Sudoeste 0 -- -- 76
2019-11-02 14:00:00 14.9 22 Sudoeste 42 Sudoeste 0 -- -- 82
2019-11-02 13:00:00 14.3 21 Sudoeste 39 Oeste 0 -- -- 84
2019-11-02 12:00:00 13.5 23 Sudoeste 51 Oeste 0 -- -- 92
2019-11-02 11:00:00 12.8 23 Sudoeste 39 Sudoeste 0.4 -- -- 94
2019-11-02 10:00:00 12.7 19 Sudoeste 44 Sudoeste 0.4 -- -- 93
2019-11-02 09:00:00 12.4 22 Sudoeste 41 Sudoeste 0.2 -- -- 94
2019-11-02 08:00:00 12.2 21 Sudoeste 39 Sudoeste 0.2 -- -- 94
2019-11-02 07:00:00 12.3 19 Sudoeste 37 Sudoeste 0 -- -- 94
2019-11-02 06:00:00 12.5 19 Sudoeste 44 Sudoeste 0 -- -- 94
2019-11-02 05:00:00 12.6 21 Sudoeste 36 Sudoeste 0 -- -- 93
2019-11-02 04:00:00 12.5 21 Sudoeste 37 Sudoeste 0 -- -- 91
2019-11-02 03:00:00 12.9 22 Sudoeste 41 Sudoeste 0 -- -- 92
2019-11-02 02:00:00 13 22 Sudoeste 39 Sudoeste 0 -- -- 92
2019-11-02 01:00:00 13 22 Sudoeste 39 Sudoeste 0 -- -- 93
2019-11-02 00:00:00 13.2 19 Sudoeste 37 Sudoeste 0 -- -- 93
2019-11-01 23:00:00 13.5 20 Sudoeste 40 Sudoeste 0 -- -- 91
2019-11-01 22:00:00 13.8 23 Sudoeste 42 Sudoeste 0 -- -- 91
2019-11-01 21:00:00 14.2 25 Sudoeste 40 Sudoeste 0 -- -- 91
2019-11-01 20:00:00 14.6 26 Sudoeste 45 Sudoeste 0 -- -- 89
2019-11-01 19:00:00 14.9 26 Sudoeste 40 Sudoeste 0 -- -- 91
2019-11-01 18:00:00 15 23 Sudoeste 43 Oeste 0.2 -- -- 93
2019-11-01 17:00:00 15.3 20 Sudoeste 39 Sudoeste 0 -- -- 94
2019-11-01 16:00:00 15.1 27 Sudoeste 46 Oeste 1.8 -- -- 94
2019-11-01 15:00:00 16.5 23 Sudoeste 39 Sudoeste 0.6 -- -- 91
2019-11-01 14:00:00 16.2 24 Sudoeste 42 Sudoeste 0.6 -- -- 89
2019-11-01 13:00:00 15.8 19 Sudoeste 34 Sudoeste 0 -- -- 91
2019-11-01 12:00:00 15.6 22 Sudoeste 32 Oeste 0 -- -- 92
2019-11-01 11:00:00 14.6 19 Sudoeste 32 Sudoeste 0 -- -- 94
2019-11-01 10:00:00 14.2 17 Sudoeste 27 Sudoeste 0 -- -- 94
2019-11-01 09:00:00 14.2 14 Sudoeste 29 Sudoeste 0 -- -- 95
2019-11-01 08:00:00 14.1 17 Sudoeste 28 Sudoeste 0 -- -- 95
2019-11-01 07:00:00 14 15 Sudoeste 24 Sudoeste 0 -- -- 96
2019-11-01 06:00:00 14.1 12 Sudoeste 24 Sudoeste 0 -- -- 95
2019-11-01 05:00:00 14.1 15 Sudoeste 33 Oeste 0 -- -- 96
2019-11-01 04:00:00 14.2 13 Sudoeste 36 Sudoeste 0.6 -- -- 96
2019-11-01 03:00:00 14.2 19 Sudoeste 32 Oeste 0 -- -- 96
2019-11-01 02:00:00 14.1 17 Sudoeste 28 Sudoeste 0.2 -- -- 97
2019-11-01 01:00:00 13.7 14 Sudoeste 27 Sudoeste 0 -- -- 96
2019-11-01 00:00:00 13.4 9 Sudoeste 19 Sudoeste 0 -- -- 95
2019-10-31 23:00:00 13.7 13 Sudoeste 25 Sudoeste 0 -- -- 92
2019-10-31 22:00:00 14.5 15 Sudoeste 25 Sudoeste 0 -- -- 83
2019-10-31 21:00:00 14.4 15 Sudoeste 26 Sudoeste 0 -- -- 84
2019-10-31 20:00:00 14.6 16 Sudoeste 25 Sudoeste 0 -- -- 82
2019-10-31 19:00:00 15.1 8 Sudoeste 18 Sudoeste 0 -- -- 80
2019-10-31 18:00:00 15.7 11 Sudoeste 28 Oeste 0 -- -- 78
2019-10-31 17:00:00 16.3 16 Oeste 28 Oeste 0 -- -- 76
2019-10-31 16:00:00 16.7 16 Oeste 28 Oeste 0 -- -- 72
2019-10-31 15:00:00 15.9 17 Oeste 27 Oeste 0 -- -- 75
2019-10-31 14:00:00 15.4 16 Oeste 32 Oeste 0 -- -- 77
2019-10-31 13:00:00 15.1 20 Oeste 30 Oeste 0 -- -- 77
2019-10-31 12:00:00 14.7 20 Oeste 30 Oeste 0 -- -- 84
2019-10-31 11:00:00 14 17 Oeste 24 Oeste 0 -- -- 88
2019-10-31 10:00:00 13 14 Oeste 23 Oeste 0 -- -- 92
2019-10-31 09:00:00 12.6 12 Oeste 23 Oeste 0 -- -- 94
2019-10-31 08:00:00 12.4 12 Sudoeste 24 Oeste 0 -- -- 94
2019-10-31 07:00:00 12.4 8 Sudoeste 15 Oeste 0 -- -- 94
2019-10-31 06:00:00 12.6 10 Oeste 18 Oeste 0 -- -- 92
2019-10-31 05:00:00 12.8 10 Oeste 19 Sudoeste 0 -- -- 94
2019-10-31 04:00:00 12.9 14 Sudoeste 22 Oeste 0 -- -- 95
2019-10-31 03:00:00 13 12 Sudoeste 22 Oeste 0 -- -- 96
2019-10-31 02:00:00 13.1 12 Sudoeste 22 Sudoeste 0 -- -- 96
2019-10-31 01:00:00 13.1 13 Sudoeste 22 Sudoeste 0 -- -- 96
2019-10-31 00:00:00 12.9 12 Sudoeste 22 Sudoeste 0 -- -- 95
2019-10-30 23:00:00 12.8 6 Sudoeste 17 Sudoeste 0 -- -- 95
2019-10-30 22:00:00 12.6 9 Sudoeste 19 Sudoeste 0 -- -- 96
2019-10-30 21:00:00 12.4 7 Sudoeste 15 Sudoeste 0 -- -- 94
2019-10-30 20:00:00 11.5 5 Sur 13 Sur 0 -- -- 91
2019-10-30 19:00:00 12.2 6 Sudoeste 25 Sudoeste 0 -- -- 91
2019-10-30 18:00:00 13.3 9 Sudoeste 20 Sudoeste 0.4 -- -- 90
2019-10-30 17:00:00 14.7 9 Sudoeste 22 Sudoeste 0 -- -- 83
2019-10-30 16:00:00 15.6 10 Sudoeste 21 Oeste 0 -- -- 75
2019-10-30 15:00:00 16 13 Sudoeste 25 Oeste 0 -- -- 73
2019-10-30 14:00:00 16.1 17 Oeste 25 Oeste 0 -- -- 75
2019-10-30 13:00:00 15.4 14 Sudoeste 23 Oeste 0 -- -- 78
2019-10-30 12:00:00 15.1 15 Sudoeste 26 Sudoeste 0 -- -- 79
2019-10-30 11:00:00 14.4 13 Sudoeste 24 Sudoeste 0 -- -- 83
2019-10-30 10:00:00 13.8 11 Sudoeste 18 Sudoeste 0 -- -- 83
2019-10-30 09:00:00 12.2 5 Sudoeste 10 Sudoeste 0 -- -- 89
2019-10-30 08:00:00 10.2 5 Sur 12 Oeste 0 -- -- 92
2019-10-30 07:00:00 10.8 3 Sudoeste 8 Sudoeste 0 -- -- 92
2019-10-30 06:00:00 10.7 2 Sudoeste 8 Sudoeste 0 -- -- 93
2019-10-30 05:00:00 10.7 5 Sur 10 Sur 0 -- -- 91
2019-10-30 04:00:00 10.8 3 Sudoeste 8 Sudoeste 0 -- -- 87
2019-10-30 03:00:00 10.1 2 Sudoeste 14 Sudoeste 0 -- -- 88
2019-10-30 02:00:00 8.4 6 Sudoeste 13 Sur 0 -- -- 94
2019-10-30 01:00:00 8.3 9 Sudoeste 13 Sudoeste 0 -- -- 93
2019-10-30 00:00:00 8.6 6 Sudoeste 9 Sudoeste 0 -- -- 92
2019-10-29 23:00:00 9.4 6 Sudoeste 12 Sudoeste 0 -- -- 92
2019-10-29 22:00:00 8.9 8 Sudoeste 10 Sudoeste 0 -- -- 93
2019-10-29 21:00:00 9.3 5 Sudoeste 9 Sur 0 -- -- 92
2019-10-29 20:00:00 10.5 6 Sudoeste 10 Sur 0 -- -- 89
2019-10-29 19:00:00 11.7 5 Sudoeste 10 Sudoeste 0 -- -- 86
2019-10-29 18:00:00 14.8 3 Sudoeste 19 Oeste 0 -- -- 76
2019-10-29 17:00:00 15.9 8 Oeste 24 Oeste 0 -- -- 75
2019-10-29 16:00:00 15.9 14 Oeste 26 Oeste 0 -- -- 76
2019-10-29 15:00:00 16.9 15 Sudoeste 25 Oeste 0 -- -- 73
2019-10-29 14:00:00 15.9 14 Oeste 22 Oeste 0 -- -- 77
2019-10-29 13:00:00 15.7 13 Oeste 18 Sudoeste 0 -- -- 78
2019-10-29 12:00:00 14 10 Sudoeste 18 Sudoeste 0 -- -- 88
2019-10-29 11:00:00 12.9 12 Oeste 17 Oeste 0 -- -- 91
2019-10-29 10:00:00 13.1 6 Oeste 15 Sudoeste 0 -- -- 89
2019-10-29 09:00:00 12.4 7 Sudoeste 13 Sudoeste 0 -- -- 91
2019-10-29 08:00:00 11.7 7 Sudoeste 11 Sur 0 -- -- 92
2019-10-29 07:00:00 11.1 7 Sudoeste 13 Sudoeste 0 -- -- 92
2019-10-29 06:00:00 10 7 Sudoeste 11 Sudoeste 0 -- -- 93
2019-10-29 05:00:00 9.4 6 Sudoeste 14 Sudoeste 0 -- -- 93
2019-10-29 04:00:00 8.6 8 Sudoeste 12 Sudoeste 0 -- -- 93
2019-10-29 03:00:00 9.5 5 Sudoeste 9 Sudoeste 0 -- -- 89
2019-10-29 02:00:00 10.1 6 Sudoeste 13 Sudoeste 0 -- -- 88
2019-10-29 01:00:00 11 9 Sudoeste 13 Sudoeste 0 -- -- 86
2019-10-29 00:00:00 11.2 7 Sudoeste 13 Sudoeste 0 -- -- 83
2019-10-28 23:00:00 11.4 8 Sudoeste 14 Sudoeste 0 -- -- 82
2019-10-28 22:00:00 11.5 8 Sudoeste 12 Sur 0 -- -- 82
2019-10-28 21:00:00 11.2 7 Sudoeste 13 Sudoeste 0 -- -- 83
2019-10-28 20:00:00 11.6 9 Sudoeste 10 Sur 0 -- -- 83
2019-10-28 19:00:00 13.7 7 Sur 8 Sudoeste 0 -- -- 77
2019-10-28 18:00:00 18.5 0 Calma 9 Norte 0 -- -- 57
2019-10-28 17:00:00 20.3 7 Norte 12 Norte 0 -- -- 49
2019-10-28 16:00:00 21.2 9 Norte 14 Norte 0 -- -- 44
2019-10-28 15:00:00 21.9 5 Oeste 14 Oeste 0 -- -- 37
2019-10-28 14:00:00 21.5 5 Oeste 15 Noroeste 0 -- -- 42
2019-10-28 13:00:00 20.4 3 Noroeste 12 Oeste 0 -- -- 44
2019-10-28 12:00:00 19.2 10 Oeste 18 Oeste 0 -- -- 49
2019-10-28 11:00:00 15.6 3 Noroeste 9 Norte 0 -- -- 76
2019-10-28 10:00:00 11.2 0 Calma 4 Sudeste 0 -- -- 89
2019-10-28 09:00:00 10.2 2 Norte 7 Sudoeste 0 -- -- 90
2019-10-28 08:00:00 9.8 6 Sudoeste 11 Sur 0 -- -- 89
2019-10-28 07:00:00 9.6 4 Sur 14 Noroeste 0 -- -- 91
2019-10-28 06:00:00 10 6 Oeste 13 Oeste 0 -- -- 90
2019-10-28 05:00:00 8.8 2 Sudoeste 5 Sur 0 -- -- 93
2019-10-28 04:00:00 8.6 4 Sudoeste 10 Noroeste 0 -- -- 91
2019-10-28 03:00:00 9.5 0 Calma 7 Sur 0 -- -- 90
2019-10-28 02:00:00 9.3 6 Sur 10 Sudoeste 0 -- -- 91
2019-10-28 01:00:00 9.7 4 Sudoeste 10 Sur 0 -- -- 89
2019-10-28 00:00:00 9.9 3 Sur 11 Sudoeste 0 -- -- 89
2019-10-27 23:00:00 10.3 6 Sudoeste 7 Sudoeste 0 -- -- 89
2019-10-27 22:00:00 11.5 0 Calma 8 Norte 0 -- -- 84
2019-10-27 21:00:00 13.5 6 Sudoeste 11 Sur 0 -- -- 75
2019-10-27 20:00:00 13.4 6 Sudoeste 11 Sudoeste 0 -- -- 76
2019-10-27 19:00:00 14 7 Sur 9 Sudoeste 0 -- -- 78
2019-10-27 18:00:00 16 5 Sudoeste 7 Sur 0 -- -- 69
2019-10-27 17:00:00 18.1 2 Sudoeste 9 Noroeste 0 -- -- 59
2019-10-27 16:00:00 20.1 6 Noroeste 14 Oeste 0 -- -- 47
2019-10-27 15:00:00 19.7 9 Oeste 14 Oeste 0 -- -- 45
2019-10-27 14:00:00 19.4 5 Norte 11 Nordeste 0 -- -- 51
2019-10-27 13:00:00 19 5 Noroeste 10 Norte 0 -- -- 50
2019-10-27 12:00:00 16.1 4 Noroeste 13 Noroeste 0 -- -- 64
2019-10-27 11:00:00 12.8 2 Nordeste 4 Sur 0 -- -- 79
2019-10-27 10:00:00 9.5 2 Sur 4 Sur 0 -- -- 90
2019-10-27 09:00:00 7.9 0 Calma 6 Sur 0 -- -- 96
2019-10-27 08:00:00 4.2 4 Sur 10 Sudoeste 0 -- -- 96
2019-10-27 07:00:00 4.1 9 Sur 10 Sudoeste 0 -- -- 96
2019-10-27 06:00:00 4.3 5 Sur 8 Sudoeste 0 -- -- 95
2019-10-27 05:00:00 4.6 0 Calma 3 Sur 0 -- -- 95
2019-10-27 04:00:00 5.4 0 Calma 5 Oeste 0 -- -- 95
2019-10-27 03:00:00 5.3 3 Sudoeste 8 Sur 0 -- -- 94
2019-10-27 02:00:00 5.2 4 Sur 8 Sudoeste 0 -- -- 94
2019-10-27 01:00:00 6.4 5 Sudoeste 8 Sur 0 -- -- 91
2019-10-27 00:00:00 7 4 Sur 11 Sur 0 -- -- 90
2019-10-26 23:00:00 8.3 9 Sur 12 Sur 0 -- -- 88
2019-10-26 22:00:00 9 10 Sudoeste 12 Sudoeste 0 -- -- 87
2019-10-26 21:00:00 10.6 6 Sudoeste 10 Sur 0 -- -- 80
2019-10-26 20:00:00 12.6 6 Sur 13 Sudoeste 0 -- -- 72
2019-10-26 19:00:00 18.6 0 Calma 4 Oeste 0 -- -- 54
2019-10-26 18:00:00 22.6 3 Oeste 13 Noroeste 0 -- -- 34
2019-10-26 17:00:00 21.8 4 Norte 14 Noroeste 0 -- -- 35
2019-10-26 16:00:00 21.5 6 Noroeste 12 Noroeste 0 -- -- 40
2019-10-26 15:00:00 20.4 5 Nordeste 11 Norte 0 -- -- 42
2019-10-26 14:00:00 19 5 Norte 10 Nordeste 0 -- -- 48
2019-10-26 13:00:00 16.6 5 Norte 8 Nordeste 0 -- -- 57
2019-10-26 12:00:00 12.7 4 Nordeste 7 Nordeste 0 -- -- 72
2019-10-26 11:00:00 9.3 3 Nordeste 5 Nordeste 0 -- -- 89
2019-10-26 10:00:00 6.9 0 Calma 9 Sudoeste 0 -- -- 99
2019-10-26 09:00:00 2.8 7 Sudoeste 8 Sur 0 -- -- 97
2019-10-26 08:00:00 2.5 5 Sudoeste 7 Sudoeste 0 -- -- 97
2019-10-26 07:00:00 3 4 Sudoeste 6 Sur 0 -- -- 96
2019-10-26 06:00:00 3.2 2 Sur 9 Sur 0 -- -- 95
2019-10-26 05:00:00 3.8 7 Sudoeste 8 Sur 0 -- -- 96
2019-10-26 04:00:00 4.3 4 Sudoeste 7 Sur 0 -- -- 95
2019-10-26 03:00:00 5 4 Sur 9 Sudoeste 0 -- -- 95
2019-10-26 02:00:00 5.7 6 Sur 9 Sur 0 -- -- 94
2019-10-26 01:00:00 6.4 5 Sudoeste 9 Sur 0 -- -- 94
2019-10-26 00:00:00 7.2 6 Sur 8 Sur 0 -- -- 92
2019-10-25 23:00:00 8.7 5 Sur 11 Sur 0 -- -- 90
2019-10-25 22:00:00 9.3 9 Sudoeste 12 Sudoeste 0 -- -- 90
2019-10-25 21:00:00 10.4 8 Sudoeste 10 Sudoeste 0 -- -- 87
2019-10-25 20:00:00 13.1 2 Sur 9 Norte 0 -- -- 80
2019-10-25 19:00:00 17.7 8 Nordeste 12 Noroeste 0 -- -- 64
2019-10-25 18:00:00 20 12 Noroeste 21 Oeste 0 -- -- 50
2019-10-25 17:00:00 20.1 11 Oeste 21 Oeste 0 -- -- 47
2019-10-25 16:00:00 20.1 8 Oeste 17 Oeste 0 -- -- 49
2019-10-25 15:00:00 19.2 9 Oeste 16 Oeste 0 -- -- 57
2019-10-25 14:00:00 16.3 2 Norte 6 Este 0 -- -- 70
2019-10-25 13:00:00 13.4 4 Nordeste 8 Nordeste 0 -- -- 84
2019-10-25 12:00:00 10.3 2 Norte 6 Oeste 0 -- -- 99
2019-10-25 11:00:00 8 4 Norte 8 Noroeste 0 -- -- 98
2019-10-25 10:00:00 6.4 3 Nordeste 9 Este 0 -- -- 99
2019-10-25 09:00:00 3.4 3 Nordeste 5 Nordeste 0 -- -- 97
2019-10-25 08:00:00 3.2 0 Calma 4 Sudoeste 0 -- -- 96
2019-10-25 07:00:00 4.1 3 Sudoeste 9 Sur 0 -- -- 97
2019-10-25 06:00:00 4.3 7 Sur 8 Sudoeste 0 -- -- 95
2019-10-25 05:00:00 5.5 4 Sur 6 Sudoeste 0 -- -- 95
2019-10-25 04:00:00 7.5 3 Sur 5 Sur 0 -- -- 94
2019-10-25 03:00:00 9.2 0 Calma 4 Sur 0 -- -- 95
2019-10-25 02:00:00 9.3 0 Calma 9 Sudoeste 0 -- -- 94
2019-10-25 01:00:00 9.3 4 Sudoeste 13 Sudoeste 0 -- -- 94
2019-10-25 00:00:00 8.8 9 Sudoeste 15 Sudoeste 0 -- -- 93
2019-10-24 23:00:00 9.5 7 Sur 21 Sudoeste 0 -- -- 90
2019-10-24 22:00:00 10.1 6 Sudoeste 22 Sudoeste 0 -- -- 89
2019-10-24 21:00:00 11.2 11 Sudoeste 21 Sudoeste 0 -- -- 86
2019-10-24 20:00:00 11.3 16 Sudoeste 22 Sudoeste 0 -- -- 84
2019-10-24 19:00:00 11.4 11 Sudoeste 27 Sudoeste 0 -- -- 79
2019-10-24 18:00:00 11.8 16 Sudoeste 33 Oeste 0 -- -- 75
2019-10-24 17:00:00 12.1 21 Sudoeste 31 Sudoeste 0 -- -- 77
2019-10-24 16:00:00 11.2 22 Oeste 31 Sudoeste 0 -- -- 78
2019-10-24 15:00:00 11 20 Sudoeste 36 Sudoeste 0 -- -- 79
2019-10-24 14:00:00 9.9 23 Sudoeste 35 Sudoeste 0 -- -- 81
2019-10-24 13:00:00 8.1 22 Sudoeste 32 Sudoeste 0 -- -- 86
2019-10-24 12:00:00 7.4 20 Sudoeste 30 Oeste 0 -- -- 90
2019-10-24 11:00:00 6.4 16 Sudoeste 32 Sudoeste 0 -- -- 94
2019-10-24 10:00:00 6.4 18 Sudoeste 29 Sudoeste 0 -- -- 93
2019-10-24 09:00:00 5.4 15 Sudoeste 25 Sudoeste 0 -- -- 94
2019-10-24 08:00:00 5.5 13 Sudoeste 19 Sudoeste 0 -- -- 95
2019-10-24 07:00:00 5.4 7 Oeste 17 Sudoeste 0 -- -- 94
2019-10-24 06:00:00 5 11 Oeste 20 Sudoeste 0.2 -- -- 93
2019-10-24 05:00:00 5.3 10 Oeste 25 Oeste 0.2 -- -- 93
2019-10-24 04:00:00 5.8 16 Oeste 30 Oeste 0.2 -- -- 95
2019-10-24 03:00:00 6.3 15 Sudoeste 28 Oeste 0.2 -- -- 95
2019-10-24 02:00:00 6.7 17 Sudoeste 31 Oeste 0 -- -- 94
2019-10-24 01:00:00 7.2 14 Sudoeste 24 Sudoeste 0 -- -- 92
2019-10-24 00:00:00 7.4 13 Sudoeste 25 Sudoeste 0 -- -- 91
2019-10-23 23:00:00 7.8 12 Oeste 23 Oeste 0 -- -- 91
2019-10-23 22:00:00 8.2 14 Oeste 24 Oeste 0 -- -- 92
2019-10-23 21:00:00 8 5 Sur 9 Sudoeste 0 -- -- 90
2019-10-23 20:00:00 8.2 7 Sur 12 Sudoeste 0 -- -- 88
2019-10-23 19:00:00 9.1 6 Sudoeste 18 Oeste 0 -- -- 85
2019-10-23 18:00:00 9.4 9 Sudoeste 13 Sur 0 -- -- 78
2019-10-23 17:00:00 9.6 5 Sudoeste 9 Sudoeste 0 -- -- 76
2019-10-23 16:00:00 10 5 Sudoeste 11 Oeste 0 -- -- 73
2019-10-23 15:00:00 9.7 0 Calma 14 Oeste 0 -- -- 77
2019-10-23 14:00:00 9.4 6 Noroeste 19 Oeste 0 -- -- 79
2019-10-23 13:00:00 9.5 4 Sur 11 Oeste 0 -- -- 84
2019-10-23 12:00:00 8 4 Sudoeste 8 Sudoeste 0 -- -- 86
2019-10-23 11:00:00 6.3 5 Sur 8 Nordeste 0 -- -- 93
2019-10-23 10:00:00 4.9 4 Sur 12 Sur 0 -- -- 95
2019-10-23 09:00:00 4.5 5 Sur 14 Sur 0 -- -- 94
2019-10-23 08:00:00 4.5 9 Sur 19 Sur 0 -- -- 93
2019-10-23 07:00:00 4.6 10 Sur 18 Sur 2 -- -- 94
2019-10-23 06:00:00 5.2 12 Sur 19 Sur 4.4 -- -- 96
2019-10-23 05:00:00 5.9 9 Sudoeste 13 Sudoeste 2 -- -- 97
2019-10-23 04:00:00 6 5 Sudoeste 8 Sudoeste 0.4 -- -- 97
2019-10-23 03:00:00 6 4 Oeste 12 Noroeste 0.2 -- -- 96
2019-10-23 02:00:00 6 6 Noroeste 10 Noroeste 0 -- -- 95
2019-10-23 01:00:00 5.8 9 Noroeste 18 Noroeste 0 -- -- 95
2019-10-23 00:00:00 6.4 6 Noroeste 13 Noroeste 0 -- -- 89
2019-10-22 23:00:00 6.5 8 Oeste 13 Noroeste 0 -- -- 90
2019-10-22 22:00:00 6.7 6 Oeste 15 Oeste 0 -- -- 90
2019-10-22 21:00:00 7 8 Oeste 13 Sudoeste 0 -- -- 91
2019-10-22 20:00:00 6.9 8 Oeste 14 Oeste 0 -- -- 93
2019-10-22 19:00:00 6.9 4 Sudoeste 7 Sur 0.2 -- -- 92
2019-10-22 18:00:00 7.2 2 Sudoeste 5 Este 0 -- -- 88
2019-10-22 17:00:00 7.5 8 Este 26 Este 0 -- -- 85
2019-10-22 16:00:00 7.6 20 Nordeste 38 Este 0 -- -- 82
2019-10-22 15:00:00 7.8 27 Este 44 Este 0 -- -- 80
2019-10-22 14:00:00 8.1 16 Nordeste 27 Este 0 -- -- 84
2019-10-22 13:00:00 7.5 13 Nordeste 19 Nordeste 0 -- -- 88
2019-10-22 12:00:00 6.7 8 Nordeste 12 Nordeste 0 -- -- 92
2019-10-22 11:00:00 6.1 8 Norte 12 Norte 0 -- -- 93
2019-10-22 10:00:00 5.7 9 Nordeste 14 Norte 0 -- -- 93
2019-10-22 09:00:00 6.1 8 Nordeste 19 Este 0 -- -- 90
2019-10-22 08:00:00 5.2 12 Nordeste 20 Nordeste 0 -- -- 91
2019-10-22 07:00:00 4.8 14 Nordeste 21 Este 0 -- -- 93
2019-10-22 06:00:00 4.4 10 Norte 15 Nordeste 0 -- -- 95
2019-10-22 05:00:00 4.6 8 Nordeste 13 Este 0 -- -- 92
2019-10-22 04:00:00 4.1 7 Nordeste 12 Nordeste -- -- -- 94
2019-10-22 03:00:00 3.9 5 Nordeste 9 Nordeste 0 -- -- 95
2019-10-22 02:00:00 4.4 5 Nordeste 9 Este 0 -- -- 93
2019-10-22 01:00:00 5 7 Este 13 Este 0 -- -- 93
2019-10-22 00:00:00 5.9 6 Este 16 Sudeste 0.4 -- -- 91
2019-10-21 23:00:00 5.9 11 Sudeste 19 Sudeste 0 -- -- 91
2019-10-21 22:00:00 5.2 4 Sur 8 Sur 0 -- -- 93
2019-10-21 21:00:00 6 2 Sur 17 Nordeste 0.2 -- -- 90
2019-10-21 20:00:00 6.5 9 Este 24 Este 1.6 -- -- 90
2019-10-21 19:00:00 7.3 16 Este 30 Este 0 -- -- 87
2019-10-21 18:00:00 9.2 18 Este 28 Este 0 -- -- 76
2019-10-21 17:00:00 11.5 5 Nordeste 12 Este 0 -- -- 54
2019-10-21 16:00:00 11.2 3 Noroeste 14 Noroeste 0 -- -- 57
2019-10-21 15:00:00 12 5 Noroeste 12 Oeste 0 -- -- 61
2019-10-21 14:00:00 11 4 Norte 13 Nordeste 0 -- -- 58
2019-10-21 13:00:00 10.2 5 Norte 12 Norte 0 -- -- 63
2019-10-21 12:00:00 9.5 6 Este 12 Este 0 -- -- 66
2019-10-21 11:00:00 7.1 3 Este 6 Sudeste 0 -- -- 90
2019-10-21 10:00:00 5 0 Calma 4 Oeste 0 -- -- 96
2019-10-21 09:00:00 4.2 0 Calma 12 Noroeste 0 -- -- 96
2019-10-21 08:00:00 3.8 4 Sur 6 Norte 0 -- -- 97
2019-10-21 07:00:00 3.3 3 Nordeste 8 Norte 0 -- -- 96
2019-10-21 06:00:00 2.9 4 Sur 5 Sur 0 -- -- 97
2019-10-21 05:00:00 1.8 2 Sudoeste 5 Sur 0 -- -- 96
2019-10-21 04:00:00 1.9 3 Sudoeste 6 Oeste 0 -- -- 96
2019-10-21 03:00:00 3 4 Sudoeste 7 Sur 0 -- -- 96
2019-10-21 02:00:00 3.1 5 Sudoeste 11 Sudoeste 0 -- -- 95
2019-10-21 01:00:00 3 6 Sur 9 Sur 0 -- -- 95
2019-10-21 00:00:00 3.7 5 Sur 6 Sur 0 -- -- 94
2019-10-20 23:00:00 5 4 Sur 8 Sudoeste 0 -- -- 92
2019-10-20 22:00:00 5.2 4 Sur 8 Sudoeste 0 -- -- 91
2019-10-20 21:00:00 5.7 5 Oeste 21 Noroeste 0 -- -- 89
2019-10-20 20:00:00 6.1 15 Noroeste 25 Noroeste 0 -- -- 89
2019-10-20 19:00:00 6.9 14 Oeste 21 Oeste 0 -- -- 88
2019-10-20 18:00:00 7 11 Noroeste 28 Noroeste 0 -- -- 88
2019-10-20 17:00:00 7.2 17 Noroeste 30 Noroeste 0 -- -- 91
2019-10-20 16:00:00 7.5 17 Noroeste 37 Oeste 0.4 -- -- 90
2019-10-20 15:00:00 8.3 17 Oeste 35 Oeste 0 -- -- 87
2019-10-20 14:00:00 8.8 18 Oeste 27 Oeste 0.2 -- -- 87
2019-10-20 13:00:00 8.8 15 Oeste 37 Sudoeste 0.2 -- -- 91
2019-10-20 12:00:00 9.8 20 Sudoeste 32 Sudoeste 0 -- -- 86
2019-10-20 11:00:00 8.5 21 Sudoeste 33 Sudoeste 0 -- -- 85
2019-10-20 10:00:00 7.9 14 Sudoeste 28 Sudoeste 0 -- -- 88
2019-10-20 09:00:00 6.4 9 Sudoeste 20 Sudoeste 0 -- -- 90
2019-10-20 08:00:00 6.8 8 Sur 30 Oeste 0 -- -- 90
2019-10-20 07:00:00 7.1 19 Sudoeste 30 Sudoeste 0 -- -- 88
2019-10-20 06:00:00 7.5 10 Sudoeste 27 Sudoeste 0 -- -- 90
2019-10-20 05:00:00 7.6 16 Sudoeste 31 Sudoeste 0 -- -- 90
2019-10-20 04:00:00 8.2 16 Sudoeste 32 Sudoeste 0.2 -- -- 92
2019-10-20 03:00:00 9.3 15 Sudoeste 35 Oeste 0 -- -- 92
2019-10-20 02:00:00 10.9 12 Sudoeste 24 Sudoeste 0 -- -- 92
2019-10-20 01:00:00 11.6 17 Sudoeste 28 Sudoeste 0 -- -- 86
2019-10-20 00:00:00 11.4 6 Sur 22 Sudeste 0 -- -- 89
2019-10-19 23:00:00 11.3 16 Sudeste 32 Sudeste 2.2 -- -- 87
2019-10-19 22:00:00 11.8 12 Sur 27 Sudoeste 0.2 -- -- 83
2019-10-19 21:00:00 12.4 16 Sudoeste 49 Sur 0.2 -- -- 80
2019-10-19 20:00:00 13.2 29 Sur 62 Sur 0 -- -- 71
2019-10-19 19:00:00 13 34 Sur 59 Sur 0 -- -- 72
2019-10-19 18:00:00 14.4 32 Sur 53 Sur 0 -- -- 66
2019-10-19 17:00:00 15.3 21 Sur 37 Sur 0 -- -- 60
2019-10-19 16:00:00 15.8 20 Sudoeste 30 Sudoeste 0 -- -- 55
2019-10-19 15:00:00 15.4 15 Sudoeste 32 Sudoeste 0 -- -- 58
2019-10-19 14:00:00 14.2 19 Sudoeste 34 Sudoeste 0 -- -- 64
2019-10-19 13:00:00 13.9 11 Sur 21 Sur 0 -- -- 63
2019-10-19 12:00:00 12.7 7 Nordeste 15 Noroeste 0 -- -- 72
2019-10-19 11:00:00 12 9 Oeste 14 Sudoeste 0 -- -- 75
2019-10-19 10:00:00 10.2 2 Sur 8 Sur 0 -- -- 82
2019-10-19 09:00:00 9.4 5 Sur 9 Sudoeste 0 -- -- 87
2019-10-19 08:00:00 9.8 6 Sudoeste 19 Sudoeste 0 -- -- 86
2019-10-19 07:00:00 10 11 Sudoeste 22 Sudoeste 0 -- -- 85
2019-10-19 06:00:00 10.4 13 Sudoeste 25 Sudoeste 0 -- -- 87
2019-10-19 05:00:00 11 13 Sudoeste 22 Sudoeste 0 -- -- 89
2019-10-19 04:00:00 10.9 4 Sudoeste 8 Sudoeste 0 -- -- 92
2019-10-19 03:00:00 10.8 4 Sur 10 Sudoeste 0 -- -- 89
2019-10-19 02:00:00 11.5 9 Oeste 23 Oeste 0 -- -- 86
2019-10-19 01:00:00 12.6 13 Sudoeste 21 Sudoeste 0 -- -- 89
2019-10-19 00:00:00 12.5 5 Sur 12 Oeste 0 -- -- 90
2019-10-18 23:00:00 13 7 Sudoeste 12 Sudoeste 0 -- -- 88
2019-10-18 22:00:00 13 5 Sudoeste 9 Sudoeste 0 -- -- 89
2019-10-18 21:00:00 13.3 5 Sudoeste 17 Oeste 0 -- -- 87
2019-10-18 20:00:00 14 9 Sudoeste 15 Oeste 0 -- -- 86
2019-10-18 19:00:00 14.8 5 Oeste 17 Oeste 0 -- -- 83
2019-10-18 18:00:00 15.2 9 Oeste 17 Oeste 0 -- -- 81
2019-10-18 17:00:00 15.8 9 Oeste 24 Oeste 0 -- -- 80
2019-10-18 16:00:00 15.7 18 Oeste 27 Sudoeste 0 -- -- 79
2019-10-18 15:00:00 15.6 18 Oeste 31 Oeste 0 -- -- 82
2019-10-18 14:00:00 15.3 19 Sudoeste 28 Sudoeste 0.2 -- -- 85
2019-10-18 13:00:00 14.5 17 Sudoeste 26 Oeste 0 -- -- 91
2019-10-18 12:00:00 13 10 Sudoeste 23 Oeste 0 -- -- 96
2019-10-18 11:00:00 12.7 14 Oeste 22 Oeste 0 -- -- 96
2019-10-18 10:00:00 12.8 8 Oeste 21 Oeste 0 -- -- 96
2019-10-18 09:00:00 12.8 13 Sudoeste 20 Sudoeste 0 -- -- 96
2019-10-18 08:00:00 12.8 10 Oeste 18 Oeste 0 -- -- 96
2019-10-18 07:00:00 13 6 Sudoeste 16 Sudoeste 0 -- -- 95
2019-10-18 06:00:00 13.1 12 Sudoeste 23 Sudoeste 0 -- -- 94
2019-10-18 05:00:00 13.1 5 Sudoeste 24 Sudoeste 0 -- -- 93
2019-10-18 04:00:00 13.5 16 Sudoeste 30 Sudoeste 0 -- -- 92
2019-10-18 03:00:00 12.7 5 Sudoeste 17 Sudoeste 0 -- -- 92
2019-10-18 02:00:00 12.8 11 Sudoeste 24 Sur 0 -- -- 93
2019-10-18 01:00:00 12.8 12 Sudoeste 23 Sur 0 -- -- 92
2019-10-18 00:00:00 13.1 9 Sudoeste 19 Sur 0 -- -- 90
2019-10-17 23:00:00 14.2 12 Sudoeste 21 Sur 0 -- -- 81
2019-10-17 22:00:00 14.1 12 Sudoeste 23 Sudoeste 0 -- -- 79
2019-10-17 21:00:00 14.3 13 Sudoeste 19 Sur 0 -- -- 78
2019-10-17 20:00:00 14.4 11 Sudoeste 22 Sur 0 -- -- 78
2019-10-17 19:00:00 16.6 8 Oeste 23 Oeste 0 -- -- 72
2019-10-17 18:00:00 17.7 14 Oeste 32 Sudoeste 0 -- -- 67
2019-10-17 17:00:00 18.3 15 Oeste 27 Sudoeste 0 -- -- 67
2019-10-17 16:00:00 16.4 19 Oeste 27 Oeste 0 -- -- 77
2019-10-17 15:00:00 16.3 20 Oeste 38 Sudoeste 0 -- -- 78
2019-10-17 14:00:00 14.9 17 Sudoeste 30 Oeste 0 -- -- 90
2019-10-17 13:00:00 13.6 17 Oeste 29 Oeste 0 -- -- 91
2019-10-17 12:00:00 13.1 14 Sudoeste 21 Sudoeste 0 -- -- 93
2019-10-17 11:00:00 12 12 Sudoeste 22 Sudoeste 0 -- -- 95
2019-10-17 10:00:00 11.4 12 Sudoeste 19 Sudoeste 0 -- -- 94
2019-10-17 09:00:00 10 9 Sudoeste 19 Sur 0 -- -- 95
2019-10-17 08:00:00 8.9 6 Sudoeste 11 Sudoeste 0 -- -- 92
2019-10-17 07:00:00 9 9 Sudoeste 12 Sudoeste 0.2 -- -- 90
2019-10-17 06:00:00 8.4 6 Sur 10 Sur 0.2 -- -- 89
2019-10-17 05:00:00 7.2 5 Sur 10 Sur 0 -- -- 87
2019-10-17 04:00:00 7.8 5 Sudoeste 12 Sur 0 -- -- 87
2019-10-17 03:00:00 6.5 5 Sur 9 Sur 0 -- -- 85
2019-10-17 02:00:00 7.9 5 Sudoeste 10 Sur 0 -- -- 80
2019-10-17 01:00:00 9.1 7 Sur 17 Sudoeste 0 -- -- 75
2019-10-17 00:00:00 9.6 7 Sudoeste 14 Sudoeste 0 -- -- 71
2019-10-16 23:00:00 10 8 Sur 15 Sur 0 -- -- 68
2019-10-16 22:00:00 11.2 9 Sudoeste 21 Sudoeste 0 -- -- 64
2019-10-16 21:00:00 13.2 11 Sudoeste 19 Sudoeste 0 -- -- 58
2019-10-16 20:00:00 14 12 Sudoeste 18 Sudoeste 0 -- -- 55
2019-10-16 19:00:00 16.3 12 Sudoeste 27 Oeste 0 -- -- 35
2019-10-16 18:00:00 17.7 18 Oeste 32 Oeste 0 -- -- 31
2019-10-16 17:00:00 17.7 17 Sudoeste 31 Oeste 0 -- -- 31
2019-10-16 16:00:00 16.8 17 Oeste 34 Oeste 0 -- -- 38
2019-10-16 15:00:00 16.7 24 Oeste 36 Oeste 0 -- -- 38
2019-10-16 14:00:00 15.1 21 Sudoeste 33 Oeste 0 -- -- 52
2019-10-16 13:00:00 14 23 Sudoeste 37 Sudoeste 0 -- -- 57
2019-10-16 12:00:00 12.7 19 Sudoeste 36 Sudoeste 0 -- -- 66
2019-10-16 11:00:00 10.7 19 Sudoeste 30 Sudoeste 0 -- -- 75
2019-10-16 10:00:00 9.5 14 Sudoeste 23 Sudoeste 0 -- -- 77
2019-10-16 09:00:00 5.9 5 Sudoeste 12 Sudoeste 0 -- -- 88
2019-10-16 08:00:00 5.7 5 Sudoeste 11 Sudoeste 0 -- -- 84
2019-10-16 07:00:00 4.8 8 Sudoeste 12 Sudoeste 0 -- -- 89
2019-10-16 06:00:00 3.4 4 Sudoeste 9 Sur 0 -- -- 90
2019-10-16 05:00:00 4.3 3 Sudoeste 5 Sudoeste 0 -- -- 88
2019-10-16 04:00:00 5.6 4 Sur 5 Sudoeste 0 -- -- 85
2019-10-16 03:00:00 8.4 4 Oeste 10 Sudoeste 0 -- -- 79
2019-10-16 02:00:00 9.5 7 Sudoeste 16 Sur 0 -- -- 66
2019-10-16 01:00:00 9.3 9 Sudoeste 18 Sudoeste 0 -- -- 66
2019-10-16 00:00:00 9 13 Sudoeste 24 Sur 0 -- -- 69
2019-10-15 23:00:00 7.8 7 Sudoeste 18 Sur 0 -- -- 74
2019-10-15 22:00:00 7.5 8 Sudoeste 16 Sur 0 -- -- 75
2019-10-15 21:00:00 7.4 7 Sudoeste 12 Sudoeste 0 -- -- 75
2019-10-15 20:00:00 9.3 7 Sudoeste 17 Sudoeste 0 -- -- 66
2019-10-15 19:00:00 11.4 15 Sudoeste 32 Sudoeste 0 -- -- 58
2019-10-15 18:00:00 12.1 17 Sudoeste 30 Sudoeste 0 -- -- 56
2019-10-15 17:00:00 12.4 19 Oeste 34 Sudoeste 0 -- -- 59
2019-10-15 16:00:00 12.2 21 Oeste 33 Sudoeste 0 -- -- 60
2019-10-15 15:00:00 11.3 16 Oeste 29 Oeste 0 -- -- 68
2019-10-15 14:00:00 10.3 22 Oeste 36 Oeste 0 -- -- 71
2019-10-15 13:00:00 10.1 17 Oeste 32 Sudoeste 0 -- -- 68
2019-10-15 12:00:00 8.6 20 Sudoeste 31 Sudoeste 0 -- -- 82
2019-10-15 11:00:00 6.3 18 Sudoeste 27 Sudoeste 0 -- -- 89
2019-10-15 10:00:00 5.7 16 Sudoeste 28 Oeste 0 -- -- 91
2019-10-15 09:00:00 5.2 15 Sudoeste 26 Sudoeste 0 -- -- 91
2019-10-15 08:00:00 5.2 16 Sudoeste 33 Sudoeste 0 -- -- 91
2019-10-15 07:00:00 5.1 17 Sudoeste 38 Oeste 0 -- -- 91
2019-10-15 06:00:00 5.1 22 Oeste 40 Sudoeste 0 -- -- 89
2019-10-15 05:00:00 5.2 24 Oeste 43 Oeste 0 -- -- 88
2019-10-15 04:00:00 5.7 22 Sudoeste 50 Oeste 0 -- -- 87
2019-10-15 03:00:00 5.9 24 Oeste 42 Sudoeste 0 -- -- 88
2019-10-15 02:00:00 6.1 23 Oeste 37 Sudoeste 0 -- -- 90
2019-10-15 01:00:00 5.6 19 Sudoeste 35 Oeste 0 -- -- 90
2019-10-15 00:00:00 5.8 23 Sudoeste 41 Sudoeste 0 -- -- 90